createdAt,value
2022-08-03T00:03:08.502Z,1.80
2022-08-03T00:10:11.296Z,1.95
2022-08-03T00:17:14.867Z,1.88
2022-08-03T00:24:17.136Z,1.70
2022-08-03T00:31:39.831Z,1.70
2022-08-03T00:38:45.116Z,2.17
2022-08-03T00:45:50.174Z,1.95
2022-08-03T00:52:55.605Z,1.90
2022-08-03T01:00:00.352Z,2.10
2022-08-03T01:07:11.339Z,2.35
2022-08-03T01:14:18.985Z,2.20
2022-08-03T01:21:26.548Z,2.40
2022-08-03T01:28:39.714Z,2.25
2022-08-03T01:35:44.920Z,2.28
2022-08-03T01:42:47.225Z,2.15
2022-08-03T01:49:50.117Z,2.30
2022-08-03T01:56:54.108Z,2.50
2022-08-03T02:04:00.523Z,2.20
2022-08-03T02:11:04.659Z,2.80
2022-08-03T02:18:10.583Z,2.70
2022-08-03T02:25:14.836Z,3.03
2022-08-03T02:32:19.713Z,2.58
2022-08-03T02:39:24.282Z,2.60
2022-08-03T02:46:29.213Z,2.50
2022-08-03T02:53:31.599Z,2.30
2022-08-03T03:00:35.394Z,2.63
2022-08-03T03:07:52.099Z,3.50
2022-08-03T03:14:55.458Z,3.53
2022-08-03T03:21:59.122Z,2.40
2022-08-03T03:29:01.490Z,2.75
2022-08-03T03:36:04.769Z,2.75
2022-08-03T03:43:11.442Z,2.60
2022-08-03T03:50:13.672Z,2.40
2022-08-03T03:57:15.871Z,2.20
2022-08-03T04:04:38.237Z,2.45
2022-08-03T04:11:41.820Z,2.78
2022-08-03T04:18:45.991Z,2.90
2022-08-03T04:25:50.052Z,2.80
2022-08-03T04:32:52.871Z,2.72
2022-08-03T04:39:57.809Z,3.00
2022-08-03T04:47:01.510Z,3.03
2022-08-03T04:54:04.349Z,3.40
2022-08-03T05:01:06.832Z,3.10
2022-08-03T05:08:11.241Z,3.15
2022-08-03T05:15:13.802Z,3.40
2022-08-03T05:22:16.168Z,2.97
2022-08-03T05:29:19.864Z,2.55
2022-08-03T05:36:22.068Z,2.95
2022-08-03T05:43:24.537Z,2.67
2022-08-03T05:50:28.161Z,2.97
2022-08-03T05:57:30.375Z,3.40
2022-08-03T06:04:33.206Z,2.60
2022-08-03T06:11:36.870Z,2.53
2022-08-03T06:18:39.123Z,2.70
2022-08-03T06:25:41.953Z,2.78
2022-08-03T06:32:51.961Z,2.22
2022-08-03T06:39:54.827Z,1.85
2022-08-03T06:46:57.072Z,1.65
2022-08-03T06:54:00.808Z,1.63
2022-08-03T07:01:03.157Z,1.70
2022-08-03T07:08:05.495Z,1.40
2022-08-03T07:15:20.665Z,1.70
2022-08-03T07:22:32.445Z,1.55
2022-08-03T07:29:34.852Z,1.40
2022-08-03T07:36:38.414Z,1.50
2022-08-03T07:43:40.609Z,1.23
2022-08-03T07:50:42.908Z,1.35
2022-08-03T07:57:46.649Z,1.42
2022-08-03T08:04:48.832Z,1.27
2022-08-03T08:11:51.011Z,1.30
2022-08-03T08:18:54.569Z,1.58
2022-08-03T08:25:56.772Z,1.20
2022-08-03T08:32:58.974Z,1.13
2022-08-03T08:40:02.528Z,1.40
2022-08-03T08:47:04.937Z,1.35
2022-08-03T08:54:07.575Z,1.60
2022-08-03T09:01:11.197Z,1.38
2022-08-03T09:08:13.507Z,1.33
2022-08-03T09:15:20.436Z,1.30
2022-08-03T09:22:25.753Z,1.38
2022-08-03T09:29:28.217Z,1.80
2022-08-03T09:36:37.465Z,1.70
2022-08-03T09:43:47.551Z,1.77
2022-08-03T09:50:58.592Z,1.77
2022-08-03T09:58:14.251Z,1.90
2022-08-03T10:05:19.870Z,1.85
2022-08-03T10:12:22.297Z,1.85
2022-08-03T10:19:25.605Z,1.55
2022-08-03T10:26:29.152Z,1.60
2022-08-03T10:33:51.813Z,1.48
2022-08-03T10:40:58.922Z,1.67
2022-08-03T10:48:03.134Z,1.42
2022-08-03T10:55:47.875Z,1.80
2022-08-03T11:03:12.613Z,1.50
2022-08-03T11:10:30.063Z,1.75
2022-08-03T11:17:46.364Z,1.60
2022-08-03T11:24:59.967Z,1.40
2022-08-03T11:32:02.190Z,1.52
2022-08-03T11:39:13.451Z,1.27
2022-08-03T11:46:28.500Z,1.40
2022-08-03T11:53:32.199Z,1.30
2022-08-03T12:00:34.467Z,1.35
2022-08-03T12:08:03.516Z,1.52
2022-08-03T12:15:01.484Z,1.38
2022-08-03T12:22:03.829Z,1.35
2022-08-03T12:29:07.371Z,1.40
2022-08-03T12:36:10.109Z,1.10
2022-08-03T12:43:13.025Z,1.30
2022-08-03T12:50:25.577Z,1.33
2022-08-03T12:57:40.372Z,1.17
2022-08-03T13:04:45.167Z,1.40
2022-08-03T13:12:02.271Z,1.33
2022-08-03T13:19:05.225Z,1.20
2022-08-03T13:26:08.257Z,1.35
2022-08-03T13:33:11.813Z,1.30
2022-08-03T13:40:14.761Z,1.50
2022-08-03T13:47:17.689Z,1.50
2022-08-03T13:54:21.450Z,1.27
2022-08-03T14:01:54.324Z,1.20
2022-08-03T14:08:49.274Z,1.27
2022-08-03T14:15:52.877Z,1.42
2022-08-03T14:22:57.463Z,1.40
2022-08-03T14:30:01.372Z,1.50
2022-08-03T14:37:05.071Z,1.45
2022-08-03T14:44:07.984Z,1.42
2022-08-03T14:51:10.416Z,1.30
2022-08-03T14:58:20.688Z,1.30
2022-08-03T15:05:24.002Z,1.50
2022-08-03T15:12:26.233Z,1.30
2022-08-03T15:20:04.061Z,1.20
2022-08-03T15:26:52.343Z,1.50
2022-08-03T15:33:54.573Z,1.60
2022-08-03T15:40:58.995Z,1.33
2022-08-03T15:48:01.407Z,1.27
2022-08-03T15:55:06.369Z,1.30
2022-08-03T16:02:09.989Z,1.52
2022-08-03T16:09:23.425Z,1.23
2022-08-03T16:16:35.235Z,1.40
2022-08-03T16:23:39.742Z,1.40
2022-08-03T16:30:45.965Z,1.40
2022-08-03T16:37:56.221Z,1.42
2022-08-03T16:45:00.522Z,1.30
2022-08-03T16:52:02.817Z,1.40
2022-08-03T16:59:05.038Z,1.10
2022-08-03T17:06:10.532Z,1.38
2022-08-03T17:13:21.538Z,1.40
2022-08-03T17:20:29.833Z,1.40
2022-08-03T17:28:48.764Z,1.40
2022-08-03T17:34:55.796Z,1.10
2022-08-03T18:07:11.091Z,1.40
2022-08-03T18:14:16.400Z,1.30
2022-08-03T18:21:21.413Z,1.40
2022-08-03T18:28:24.976Z,1.20
2022-08-03T18:35:53.667Z,1.30
2022-08-03T18:42:54.855Z,1.50
2022-08-03T18:50:01.690Z,1.52
2022-08-03T18:57:06.579Z,1.35
2022-08-03T19:04:12.339Z,1.83
2022-08-03T19:11:17.567Z,1.38
2022-08-03T19:18:20.807Z,1.40
2022-08-03T19:25:34.413Z,1.60
2022-08-03T19:32:39.503Z,1.23
2022-08-03T19:39:56.526Z,1.30
2022-08-03T19:47:08.400Z,1.20
2022-08-03T19:54:14.221Z,1.40
2022-08-03T20:01:21.508Z,1.50
2022-08-03T20:08:28.450Z,1.58
2022-08-03T20:15:32.849Z,2.22
2022-08-03T20:22:45.603Z,1.52
2022-08-03T20:30:06.689Z,1.30
2022-08-03T20:37:12.111Z,1.50
2022-08-03T20:44:16.399Z,1.20
2022-08-03T20:51:49.910Z,1.25
2022-08-03T20:58:50.253Z,1.20
2022-08-03T21:05:55.375Z,1.50
2022-08-03T21:13:05.680Z,1.27
2022-08-03T21:13:14.914Z,1.30
2022-08-03T21:20:20.010Z,1.23
2022-08-03T21:27:25.425Z,1.30
2022-08-03T21:34:29.067Z,1.20
2022-08-03T21:41:31.855Z,1.10
2022-08-03T21:48:36.468Z,1.27
2022-08-03T21:55:40.262Z,1.20
2022-08-03T22:02:44.409Z,1.30
2022-08-03T22:09:55.622Z,1.33
2022-08-03T22:16:59.341Z,1.40
2022-08-03T22:24:02.264Z,1.20
2022-08-03T22:31:30.920Z,0.98
2022-08-03T22:38:28.222Z,1.30
2022-08-03T22:46:07.428Z,1.08
2022-08-03T22:52:52.935Z,1.30
2022-08-03T22:59:56.890Z,0.95
2022-08-03T23:07:00.940Z,1.30
2022-08-03T23:14:04.220Z,1.10
2022-08-03T23:21:11.329Z,1.05
2022-08-03T23:28:14.465Z,1.20
2022-08-03T23:36:27.550Z,1.17
2022-08-03T23:42:59.230Z,1.30
2022-08-03T23:50:01.620Z,1.17
2022-08-03T23:57:08.100Z,1.40
